Time;durP1;ratioP1;P1;durP2;ratioP2;P2;SDS_P1;SDS_P2;PMS_P1;PMS_P2;Temp;Humidity;BMP_temperature;BMP_pressure;BME280_temperature;BME280_humidity;BME280_pressure;Samples;Min_cycle;Max_cycle;Signal;HPM_P1;HPM_P2
2021/10/28 00:12:13;;;;;;;11.52;3.42;;;13.80;92.50;;;;;;5040176;28;20045;-65
2021/10/28 00:14:44;;;;;;;8.80;2.90;;;13.80;92.70;;;;;;5046044;28;20053;-66
2021/10/28 00:17:12;;;;;;;8.75;3.35;;;13.80;92.90;;;;;;5040851;28;20052;-66
2021/10/28 00:19:41;;;;;;;10.30;4.65;;;13.80;92.50;;;;;;5037183;28;20045;-66
2021/10/28 00:22:08;;;;;;;7.22;2.15;;;13.80;92.50;;;;;;5046471;28;20110;-64
2021/10/28 00:24:35;;;;;;;10.65;2.95;;;13.80;92.50;;;;;;5043337;28;20465;-65
2021/10/28 00:27:02;;;;;;;18.65;3.25;;;13.70;92.50;;;;;;5042181;28;20037;-66
2021/10/28 00:29:29;;;;;;;11.98;3.15;;;13.70;92.70;;;;;;5035147;28;20119;-65
2021/10/28 00:31:56;;;;;;;9.75;3.67;;;13.70;92.50;;;;;;5039156;28;20511;-66
2021/10/28 00:34:24;;;;;;;8.95;2.92;;;13.70;92.50;;;;;;5047088;28;20435;-66
2021/10/28 00:36:52;;;;;;;9.27;2.80;;;13.70;92.60;;;;;;5043778;28;20119;-66
2021/10/28 00:39:19;;;;;;;13.18;2.65;;;13.60;92.60;;;;;;5046763;28;20128;-65
2021/10/28 00:41:46;;;;;;;11.45;2.53;;;13.70;92.60;;;;;;5047275;28;20095;-65
2021/10/28 00:44:13;;;;;;;13.52;2.72;;;13.60;92.50;;;;;;5035898;28;20049;-66
2021/10/28 00:46:40;;;;;;;10.10;2.63;;;13.60;92.50;;;;;;5038553;28;20072;-65
2021/10/28 00:49:08;;;;;;;11.32;3.15;;;13.60;92.60;;;;;;5031827;28;20038;-66
2021/10/28 00:51:35;;;;;;;12.40;3.40;;;13.60;92.70;;;;;;5043413;28;20124;-66
2021/10/28 00:54:03;;;;;;;8.35;3.60;;;13.60;92.60;;;;;;5039785;28;20435;-66
2021/10/28 00:56:32;;;;;;;9.93;2.92;;;13.60;92.70;;;;;;5046216;28;20077;-65
2021/10/28 00:59:01;;;;;;;15.32;3.53;;;13.60;92.70;;;;;;5034144;28;20132;-65
2021/10/28 01:01:28;;;;;;;10.40;3.03;;;13.60;92.70;;;;;;5040512;28;20523;-65
2021/10/28 01:03:55;;;;;;;13.38;3.00;;;13.50;92.80;;;;;;5041501;28;20049;-66
2021/10/28 01:06:22;;;;;;;10.82;2.28;;;13.50;92.90;;;;;;5045940;28;20072;-66
2021/10/28 01:08:49;;;;;;;21.10;4.07;;;13.50;92.90;;;;;;5043330;28;20077;-65
2021/10/28 01:11:16;;;;;;;8.15;2.17;;;13.50;92.90;;;;;;5037964;28;20041;-66
2021/10/28 01:13:43;;;;;;;11.60;4.18;;;13.50;93.10;;;;;;5048197;28;20091;-65
2021/10/28 01:16:09;;;;;;;16.52;2.83;;;13.60;92.80;;;;;;5041801;28;20049;-65
2021/10/28 01:18:38;;;;;;;6.97;2.55;;;13.60;92.90;;;;;;4692204;28;9999940;-66
2021/10/28 01:21:07;;;;;;;11.63;2.78;;;13.50;92.80;;;;;;5046998;28;20106;-65
2021/10/28 01:23:34;;;;;;;17.58;2.92;;;13.50;92.90;;;;;;5047122;28;20049;-65
2021/10/28 01:26:05;;;;;;;8.85;2.90;;;13.50;92.80;;;;;;5046282;28;20041;-65
2021/10/28 01:28:34;;;;;;;9.02;2.60;;;13.50;92.90;;;;;;5044947;28;20076;-65
2021/10/28 01:31:03;;;;;;;8.38;2.42;;;13.50;92.80;;;;;;5048279;28;20046;-66
2021/10/28 01:33:30;;;;;;;9.00;2.75;;;13.50;93.00;;;;;;5040162;28;20107;-66
2021/10/28 01:35:56;;;;;;;8.70;2.00;;;13.50;92.80;;;;;;5045672;28;20187;-65
2021/10/28 01:38:27;;;;;;;7.70;2.75;;;13.50;92.70;;;;;;5040446;28;20075;-65
2021/10/28 01:40:57;;;;;;;9.85;3.13;;;13.50;92.60;;;;;;5045733;28;20148;-67
2021/10/28 01:43:25;;;;;;;11.40;2.65;;;13.50;92.60;;;;;;5048690;28;20068;-66
2021/10/28 01:45:52;;;;;;;8.45;2.97;;;13.50;92.50;;;;;;5034494;28;20084;-66
2021/10/28 01:48:19;;;;;;;11.02;2.63;;;13.50;92.50;;;;;;5038796;28;20041;-65
2021/10/28 01:50:46;;;;;;;12.38;2.88;;;13.40;92.40;;;;;;5038393;28;20504;-65
2021/10/28 01:53:13;;;;;;;8.43;3.03;;;13.40;92.40;;;;;;5049411;28;20041;-65
2021/10/28 01:55:40;;;;;;;10.48;3.00;;;13.40;92.40;;;;;;5039986;28;20500;-65
2021/10/28 01:58:07;;;;;;;10.02;3.35;;;13.40;92.50;;;;;;5039130;28;20084;-66
2021/10/28 02:00:34;;;;;;;7.88;3.38;;;13.50;92.40;;;;;;5043692;28;20042;-65
2021/10/28 02:03:01;;;;;;;8.63;3.20;;;13.40;92.30;;;;;;5047946;28;20061;-65
2021/10/28 02:05:34;;;;;;;11.55;3.25;;;13.40;92.40;;;;;;5046730;28;20049;-65
2021/10/28 02:08:01;;;;;;;11.73;3.70;;;13.40;92.60;;;;;;5043655;28;20053;-64
2021/10/28 02:10:28;;;;;;;9.10;3.20;;;13.40;92.30;;;;;;5039301;28;20099;-66
2021/10/28 02:12:57;;;;;;;11.30;3.10;;;13.30;92.20;;;;;;5037890;28;20065;-65
2021/10/28 02:15:24;;;;;;;13.82;3.85;;;13.30;92.30;;;;;;5040568;28;20446;-66
2021/10/28 02:17:51;;;;;;;10.32;3.50;;;13.30;92.20;;;;;;5040756;28;20450;-65
2021/10/28 02:20:19;;;;;;;9.23;3.47;;;13.30;92.20;;;;;;5048895;28;20514;-65
2021/10/28 02:22:46;;;;;;;14.52;4.10;;;13.30;92.30;;;;;;5041378;28;20135;-67
2021/10/28 02:25:13;;;;;;;8.65;3.67;;;13.20;92.30;;;;;;5041691;28;20099;-64
2021/10/28 02:27:40;;;;;;;7.05;3.92;;;13.20;92.30;;;;;;5043050;28;20415;-65
2021/10/28 02:30:08;;;;;;;12.68;5.22;;;13.10;92.30;;;;;;5043359;28;20673;-65
2021/10/28 02:32:35;;;;;;;11.23;4.65;;;13.20;92.40;;;;;;5040308;28;20107;-65
2021/10/28 02:35:01;;;;;;;13.20;5.30;;;13.20;92.60;;;;;;5039503;28;20076;-65
2021/10/28 02:37:28;;;;;;;10.80;4.15;;;13.20;92.60;;;;;;5044566;28;20329;-65
2021/10/28 02:39:55;;;;;;;8.82;3.72;;;13.20;92.60;;;;;;5047952;28;20077;-65
2021/10/28 02:42:22;;;;;;;16.08;4.30;;;13.10;92.60;;;;;;5036129;28;20123;-66
2021/10/28 02:44:49;;;;;;;8.02;4.22;;;13.10;92.70;;;;;;5042466;28;20443;-66
2021/10/28 02:47:16;;;;;;;9.68;4.57;;;13.10;92.70;;;;;;5047067;28;20076;-65
2021/10/28 02:49:43;;;;;;;13.68;5.40;;;13.10;92.70;;;;;;5047854;28;20041;-65
2021/10/28 02:52:10;;;;;;;12.98;5.30;;;13.10;92.80;;;;;;5037926;28;20099;-65
2021/10/28 02:54:38;;;;;;;10.95;4.25;;;13.10;92.80;;;;;;5035334;28;20511;-65
2021/10/28 02:57:08;;;;;;;12.65;4.80;;;13.10;92.70;;;;;;5033952;28;20049;-66
2021/10/28 02:59:35;;;;;;;11.57;4.88;;;13.10;92.80;;;;;;5037132;28;20058;-66
2021/10/28 03:02:02;;;;;;;15.90;4.63;;;13.10;92.80;;;;;;5047694;28;20507;-66
2021/10/28 03:04:29;;;;;;;8.38;5.07;;;13.10;92.90;;;;;;5047337;28;20110;-65
2021/10/28 03:06:56;;;;;;;15.73;6.13;;;13.00;92.90;;;;;;5042675;28;20495;-66
2021/10/28 03:09:25;;;;;;;15.73;5.10;;;13.00;92.90;;;;;;5043323;28;20087;-66
2021/10/28 03:11:54;;;;;;;13.95;5.82;;;13.00;92.90;;;;;;5045526;28;20727;-65
2021/10/28 03:14:27;;;;;;;10.30;4.53;;;13.00;92.90;;;;;;5039451;28;20076;-65
2021/10/28 03:17:18;;;;;;;17.50;5.25;;;13.00;92.90;;;;;;5042855;28;20053;-66
2021/10/28 03:25:32;;;;;;;11.75;5.03;;;13.00;93.10;;;;;;5040362;28;20143;-66
2021/10/28 03:28:01;;;;;;;15.10;4.47;;;12.90;93.00;;;;;;5043379;28;20083;-66
2021/10/28 03:30:29;;;;;;;6.80;3.60;;;12.90;92.90;;;;;;5043922;28;20088;-65
2021/10/28 03:32:55;;;;;;;10.75;4.70;;;12.90;93.00;;;;;;5041753;28;20080;-65
2021/10/28 03:35:22;;;;;;;9.05;4.20;;;12.90;93.00;;;;;;5034340;28;20453;-67
2021/10/28 03:37:52;;;;;;;10.73;4.22;;;12.90;93.00;;;;;;5042582;28;20045;-66
2021/10/28 03:40:33;;;;;;;20.73;4.57;;;12.90;93.00;;;;;;5044718;28;20481;-65
2021/10/28 04:18:37;;;;;;;11.80;4.22;;;12.90;93.10;;;;;;5048472;28;20045;-66
2021/10/28 04:21:24;;;;;;;12.00;4.13;;;12.80;93.10;;;;;;5040962;28;20041;-66
2021/10/28 04:29:20;;;;;;;9.82;4.13;;;12.80;93.20;;;;;;5041885;28;20085;-65
2021/10/28 04:31:46;;;;;;;13.60;4.30;;;12.80;93.30;;;;;;5038923;28;20500;-65
2021/10/28 04:34:13;;;;;;;14.07;3.65;;;12.80;93.40;;;;;;5042921;28;20053;-64
2021/10/28 04:36:40;;;;;;;11.93;3.70;;;12.80;93.40;;;;;;5038848;28;20049;-65
2021/10/28 04:39:08;;;;;;;16.70;3.90;;;12.70;93.50;;;;;;5043346;28;20045;-66
2021/10/28 04:41:36;;;;;;;12.25;4.13;;;12.70;93.60;;;;;;5034719;28;20418;-65
2021/10/28 04:44:06;;;;;;;6.53;3.28;;;12.70;93.60;;;;;;5045303;28;20040;-66
2021/10/28 04:46:33;;;;;;;11.85;4.35;;;12.70;93.60;;;;;;5035746;28;20489;-66
2021/10/28 04:49:00;;;;;;;10.07;4.28;;;12.70;93.70;;;;;;5041250;28;20510;-65
2021/10/28 04:51:27;;;;;;;13.02;4.10;;;12.70;93.70;;;;;;5042368;28;20053;-66
2021/10/28 04:53:54;;;;;;;10.10;4.50;;;12.70;93.70;;;;;;5036543;28;20380;-66
2021/10/28 04:56:21;;;;;;;14.75;4.70;;;12.70;93.70;;;;;;5039133;28;20087;-65
2021/10/28 04:58:47;;;;;;;9.85;4.20;;;12.70;93.70;;;;;;5043070;28;20083;-65
2021/10/28 05:01:14;;;;;;;18.20;3.95;;;12.70;93.90;;;;;;5043253;28;20040;-66
2021/10/28 05:03:41;;;;;;;11.02;4.18;;;12.70;93.80;;;;;;5044333;28;20044;-65
2021/10/28 05:06:08;;;;;;;12.77;3.92;;;12.70;93.80;;;;;;5042953;28;20049;-65
2021/10/28 05:08:35;;;;;;;11.13;4.13;;;12.70;93.80;;;;;;5040167;28;20175;-66
2021/10/28 05:11:02;;;;;;;12.10;4.43;;;12.70;94.20;;;;;;5036901;28;20037;-65
2021/10/28 05:13:29;;;;;;;12.23;4.68;;;12.70;93.90;;;;;;5044244;28;20077;-66
2021/10/28 05:15:57;;;;;;;9.45;3.63;;;12.70;94.00;;;;;;5036236;28;20132;-66
2021/10/28 05:18:25;;;;;;;10.93;4.38;;;12.60;93.90;;;;;;5036527;28;20049;-66
2021/10/28 05:20:53;;;;;;;16.02;5.18;;;12.70;93.90;;;;;;5040347;28;20247;-65
2021/10/28 05:23:19;;;;;;;12.90;4.18;;;12.70;93.90;;;;;;5036062;28;20175;-67
2021/10/28 05:25:49;;;;;;;9.45;4.05;;;12.60;93.90;;;;;;5046628;28;20068;-65
2021/10/28 05:28:16;;;;;;;14.10;4.20;;;12.60;93.90;;;;;;5044281;28;20041;-65
2021/10/28 05:30:43;;;;;;;15.63;6.03;;;12.60;94.00;;;;;;5043901;28;20545;-65
2021/10/28 05:33:14;;;;;;;10.75;3.85;;;12.60;94.00;;;;;;5043004;28;20049;-65
2021/10/28 05:35:41;;;;;;;9.48;4.05;;;12.50;94.00;;;;;;5021890;28;20572;-65
2021/10/28 05:38:08;;;;;;;11.95;4.72;;;12.50;94.10;;;;;;5033606;28;20072;-67
2021/10/28 05:40:35;;;;;;;9.98;3.30;;;12.50;94.20;;;;;;5041832;28;20045;-67
2021/10/28 05:43:02;;;;;;;16.95;4.63;;;12.50;94.00;;;;;;5037971;28;20532;-67
2021/10/28 05:45:32;;;;;;;8.40;3.78;;;12.50;93.90;;;;;;5039236;28;20049;-67
2021/10/28 05:47:59;;;;;;;12.73;4.38;;;12.50;93.90;;;;;;5041030;28;20057;-65
2021/10/28 05:50:27;;;;;;;12.32;4.40;;;12.50;93.90;;;;;;5041709;28;20045;-65
2021/10/28 05:52:55;;;;;;;12.65;6.20;;;12.50;93.90;;;;;;5043216;28;20049;-67
2021/10/28 05:55:23;;;;;;;13.50;4.68;;;12.50;93.90;;;;;;5053281;28;20156;-64
2021/10/28 05:57:51;;;;;;;7.85;3.85;;;12.50;94.00;;;;;;5047014;28;20045;-66
2021/10/28 06:00:18;;;;;;;7.47;3.83;;;12.50;94.00;;;;;;5049346;28;20040;-66
2021/10/28 06:02:45;;;;;;;13.57;5.00;;;12.50;94.20;;;;;;5046310;28;20542;-66
2021/10/28 06:05:12;;;;;;;8.38;5.00;;;12.50;94.10;;;;;;5042170;28;20064;-65
2021/10/28 06:07:39;;;;;;;12.68;5.45;;;12.50;94.10;;;;;;5048981;28;20079;-64
2021/10/28 06:10:06;;;;;;;10.60;4.60;;;12.50;94.00;;;;;;5042945;28;20550;-66
2021/10/28 06:12:39;;;;;;;10.70;4.80;;;12.50;94.00;;;;;;5052450;28;20105;-66
2021/10/28 06:15:07;;;;;;;10.05;4.38;;;12.50;94.00;;;;;;5057384;28;20040;-65
2021/10/28 06:17:37;;;;;;;12.43;4.97;;;12.50;94.10;;;;;;5054983;28;20076;-65
2021/10/28 06:20:05;;;;;;;12.82;4.40;;;12.50;94.00;;;;;;5043710;28;20049;-69
2021/10/28 06:22:32;;;;;;;17.20;4.60;;;12.50;94.00;;;;;;5020911;28;20049;-67
2021/10/28 06:24:59;;;;;;;10.88;4.32;;;12.50;94.00;;;;;;5049001;28;20083;-67
2021/10/28 06:27:26;;;;;;;8.73;4.03;;;12.50;94.00;;;;;;5047519;28;20048;-68
2021/10/28 06:29:52;;;;;;;16.50;4.03;;;12.50;94.10;;;;;;5047222;28;20569;-68
2021/10/28 06:32:20;;;;;;;17.90;5.60;;;12.50;94.00;;;;;;5046521;28;20049;-66
2021/10/28 06:34:48;;;;;;;16.27;4.97;;;12.50;94.00;;;;;;5047682;28;20085;-67
2021/10/28 06:37:16;;;;;;;11.73;3.78;;;12.50;94.00;;;;;;5041324;28;20087;-68
2021/10/28 06:39:44;;;;;;;16.52;4.72;;;12.40;93.90;;;;;;5045114;28;20044;-66
2021/10/28 06:42:13;;;;;;;17.33;4.07;;;12.40;93.90;;;;;;5042667;28;20037;-66
2021/10/28 06:44:41;;;;;;;12.73;5.28;;;12.50;93.90;;;;;;5045881;28;20065;-68
2021/10/28 06:47:08;;;;;;;8.98;3.72;;;12.50;93.90;;;;;;5045684;28;20049;-67
2021/10/28 06:49:40;;;;;;;19.13;5.35;;;12.40;93.90;;;;;;5041009;28;20499;-67
2021/10/28 06:52:10;;;;;;;17.13;4.47;;;12.40;93.90;;;;;;5036584;28;20493;-67
2021/10/28 06:54:38;;;;;;;10.57;3.65;;;12.40;93.90;;;;;;5038963;28;20049;-67
2021/10/28 07:02:43;;;;;;;8.50;4.07;;;12.40;93.90;;;;;;5040946;28;20057;-66
2021/10/28 07:05:11;;;;;;;11.38;3.47;;;12.40;93.90;;;;;;5038001;28;20045;-68
2021/10/28 07:07:38;;;;;;;8.15;2.90;;;12.50;93.80;;;;;;5046481;28;20135;-67
2021/10/28 07:10:17;;;;;;;7.28;4.10;;;12.50;93.80;;;;;;5036645;28;20470;-67
2021/10/28 07:20:28;;;;;;;7.78;3.65;;;12.50;93.80;;;;;;5038198;28;20106;-67
2021/10/28 08:17:23;;;;;;;9.38;2.53;;;13.10;93.60;;;;;;5040293;28;20061;-68
2021/10/28 08:19:51;;;;;;;11.25;3.60;;;13.10;93.40;;;;;;5038790;28;20049;-67
2021/10/28 08:30:13;;;;;;;12.02;4.85;;;13.30;93.20;;;;;;5030429;28;20369;-67
2021/10/28 08:32:40;;;;;;;9.45;2.55;;;13.30;93.10;;;;;;5030063;28;20064;-68
2021/10/28 08:35:29;;;;;;;18.40;3.63;;;13.40;92.90;;;;;;4688508;28;10000978;-67
2021/10/28 08:37:59;;;;;;;7.47;3.05;;;13.40;92.70;;;;;;5036990;28;20045;-66
2021/10/28 08:40:26;;;;;;;13.63;4.18;;;13.40;92.70;;;;;;5036621;28;20079;-67
2021/10/28 08:42:57;;;;;;;15.68;3.17;;;13.40;92.60;;;;;;5031642;28;20053;-66
2021/10/28 08:45:24;;;;;;;11.02;2.90;;;13.40;92.20;;;;;;5032837;28;20471;-66
2021/10/28 08:47:54;;;;;;;13.02;3.42;;;13.40;92.40;;;;;;5034682;28;20160;-66
2021/10/28 08:50:27;;;;;;;10.52;2.42;;;13.50;92.40;;;;;;5039049;28;20077;-67
2021/10/28 08:53:13;;;;;;;20.50;9.47;;;13.60;92.30;;;;;;5032670;28;20052;-66
2021/10/28 08:55:41;;;;;;;10.82;2.33;;;13.60;92.30;;;;;;5034346;28;20083;-66
2021/10/28 09:43:55;;;;;;;5.72;1.45;;;14.50;90.00;;;;;;5039869;28;20099;-66
2021/10/28 09:46:45;;;;;;;5.35;1.83;;;14.50;90.60;;;;;;5045369;28;20104;-67
2021/10/28 09:54:47;;;;;;;7.53;1.90;;;14.60;89.90;;;;;;5042223;28;20057;-67
2021/10/28 10:00:18;;;;;;;9.98;2.17;;;14.80;90.00;;;;;;5037239;28;20096;-68
2021/10/28 10:02:51;;;;;;;8.05;1.88;;;14.80;90.10;;;;;;5037463;28;20102;-67
2021/10/28 10:05:23;;;;;;;8.75;2.92;;;14.70;89.90;;;;;;5039985;28;20045;-69
2021/10/28 10:07:54;;;;;;;7.22;1.80;;;14.80;88.80;;;;;;5034578;28;20115;-66
2021/10/28 10:10:21;;;;;;;8.15;1.67;;;14.80;89.40;;;;;;5039332;28;20098;-68
2021/10/28 10:12:48;;;;;;;14.43;2.40;;;14.80;89.00;;;;;;5037430;28;20083;-67
2021/10/28 10:15:15;;;;;;;6.80;2.03;;;14.80;88.90;;;;;;5041288;28;20409;-68
2021/10/28 10:17:48;;;;;;;6.75;2.53;;;14.80;88.20;;;;;;5039674;28;20048;-67
2021/10/28 10:20:17;;;;;;;10.83;2.53;;;14.80;88.90;;;;;;5005338;28;20091;-66
2021/10/28 11:06:39;;;;;;;9.27;1.73;;;15.30;86.90;;;;;;5028533;28;20064;-67
2021/10/28 11:21:19;;;;;;;11.35;2.47;;;15.60;84.20;;;;;;5033457;28;20378;-67
2021/10/28 12:20:51;;;;;;;8.48;1.50;;;15.50;86.00;;;;;;5039777;28;20045;-66
2021/10/28 12:45:50;;;;;;;6.65;1.80;;;15.40;86.30;;;;;;5041222;28;20405;-66
2021/10/28 12:51:01;;;;;;;9.50;2.22;;;15.50;86.70;;;;;;5042222;28;20496;-67
2021/10/28 12:56:40;;;;;;;9.00;1.95;;;15.60;86.10;;;;;;5040451;28;20076;-65
2021/10/28 13:48:10;;;;;;;7.18;1.83;;;16.10;84.10;;;;;;5032261;28;20210;-67
2021/10/28 13:50:00;;;;;;;10.35;1.88;;;16.30;84.80;;;;;;5035103;28;20136;-67
2021/10/28 13:57:53;;;;;;;15.13;3.28;;;16.20;83.90;;;;;;5046597;28;20322;-67
2021/10/28 15:29:58;;;;;;;8.80;2.28;;;15.90;83.50;;;;;;5038421;28;20120;-66
2021/10/28 15:42:52;;;;;;;8.57;2.78;;;15.60;84.10;;;;;;5040233;28;20057;-65
2021/10/28 16:01:38;;;;;;;14.05;3.85;;;15.10;85.10;;;;;;5045300;28;20041;-66
2021/10/28 16:23:28;;;;;;;14.02;4.18;;;14.70;86.80;;;;;;5036477;28;20168;-66
2021/10/28 16:25:55;;;;;;;11.20;3.60;;;14.70;87.00;;;;;;5039005;28;20068;-67
2021/10/28 16:28:24;;;;;;;21.23;4.85;;;14.60;87.30;;;;;;5035667;28;20332;-67
2021/10/28 16:30:51;;;;;;;21.40;4.30;;;14.50;87.40;;;;;;5032280;28;20064;-67
2021/10/28 16:33:18;;;;;;;14.15;4.05;;;14.50;87.40;;;;;;5035580;28;20711;-67
2021/10/28 16:35:45;;;;;;;14.93;3.53;;;14.50;88.00;;;;;;5039217;28;20052;-66
2021/10/28 16:38:12;;;;;;;9.10;3.90;;;14.40;87.60;;;;;;5033298;28;20144;-66
2021/10/28 16:40:39;;;;;;;8.30;3.40;;;14.40;87.40;;;;;;5030477;28;20108;-66
2021/10/28 16:43:07;;;;;;;7.78;3.40;;;14.40;87.40;;;;;;5036416;28;20278;-68
2021/10/28 16:45:34;;;;;;;6.60;3.17;;;14.40;87.50;;;;;;5036849;28;20088;-65
2021/10/28 16:48:01;;;;;;;9.85;3.95;;;14.30;87.40;;;;;;5033412;28;20048;-67
2021/10/28 16:50:27;;;;;;;10.75;4.47;;;14.30;87.50;;;;;;5041695;28;20565;-68
2021/10/28 16:52:54;;;;;;;8.85;4.10;;;14.30;87.60;;;;;;5035824;28;20569;-67
2021/10/28 16:55:21;;;;;;;10.15;4.22;;;14.30;87.70;;;;;;5045271;28;20069;-67
2021/10/28 16:57:48;;;;;;;8.35;3.28;;;14.20;87.70;;;;;;5038826;28;20087;-66
2021/10/28 17:00:17;;;;;;;12.05;4.40;;;14.20;88.30;;;;;;5036380;28;20111;-67
2021/10/28 17:02:44;;;;;;;12.23;4.13;;;14.20;87.70;;;;;;5036236;28;20548;-67
2021/10/28 17:05:12;;;;;;;12.48;4.40;;;14.20;87.80;;;;;;5027612;28;20053;-67
2021/10/28 17:07:39;;;;;;;8.30;3.88;;;14.20;87.70;;;;;;5027004;28;20053;-67
2021/10/28 17:10:06;;;;;;;8.15;4.00;;;14.20;87.70;;;;;;5037529;28;20076;-66
2021/10/28 17:12:34;;;;;;;13.55;3.80;;;14.10;87.60;;;;;;5038465;28;20576;-66
2021/10/28 17:15:00;;;;;;;5.20;2.53;;;14.10;87.60;;;;;;5030586;28;20091;-67
2021/10/28 17:17:28;;;;;;;11.10;2.95;;;14.10;87.60;;;;;;4998387;28;20103;-67
2021/10/28 17:20:00;;;;;;;10.40;2.83;;;14.10;87.60;;;;;;5034422;28;20533;-66
2021/10/28 17:22:27;;;;;;;11.95;3.53;;;14.10;87.60;;;;;;5038495;28;20053;-67
2021/10/28 17:24:54;;;;;;;11.50;4.25;;;14.10;87.70;;;;;;5033589;28;20751;-68
2021/10/28 17:27:21;;;;;;;14.77;5.10;;;14.00;87.80;;;;;;5034008;28;20152;-66
2021/10/28 17:29:49;;;;;;;18.17;4.07;;;14.00;87.90;;;;;;5034652;28;20056;-67
2021/10/28 17:32:15;;;;;;;6.30;3.13;;;13.90;87.90;;;;;;5030640;28;20492;-67
2021/10/28 17:34:42;;;;;;;12.85;5.28;;;13.90;88.10;;;;;;5033382;28;20076;-66
2021/10/28 17:37:09;;;;;;;18.92;5.15;;;13.90;88.20;;;;;;5039286;28;20120;-66
2021/10/28 17:39:36;;;;;;;10.93;3.75;;;13.90;88.30;;;;;;5030968;28;20499;-67
2021/10/28 17:42:03;;;;;;;15.57;3.53;;;13.80;88.40;;;;;;5040669;28;20132;-67
2021/10/28 17:44:38;;;;;;;7.53;3.72;;;13.80;88.50;;;;;;5037879;28;20131;-67
2021/10/28 17:47:05;;;;;;;10.82;2.85;;;13.80;88.60;;;;;;5040894;28;20080;-67
2021/10/28 17:49:32;;;;;;;7.03;2.90;;;13.80;88.50;;;;;;5039206;28;20092;-67
2021/10/28 17:51:59;;;;;;;7.80;3.08;;;13.80;88.50;;;;;;5040964;28;20076;-67
2021/10/28 17:54:25;;;;;;;9.55;3.40;;;13.80;88.60;;;;;;5040203;28;20049;-66
2021/10/28 17:56:52;;;;;;;8.70;3.15;;;13.80;88.70;;;;;;5038373;28;20041;-67
2021/10/28 17:59:19;;;;;;;8.57;3.55;;;13.80;88.70;;;;;;5039850;28;20045;-66
2021/10/28 18:01:46;;;;;;;8.80;3.05;;;13.90;88.80;;;;;;5037614;28;20323;-66
2021/10/28 18:04:13;;;;;;;8.32;3.28;;;13.70;88.60;;;;;;5040878;28;20048;-67
2021/10/28 18:06:40;;;;;;;9.73;3.17;;;13.80;88.70;;;;;;5038198;28;20045;-66
2021/10/28 18:09:07;;;;;;;12.23;3.38;;;13.80;88.70;;;;;;5038216;28;20052;-66
2021/10/28 18:11:34;;;;;;;12.10;3.20;;;13.80;88.60;;;;;;5040090;28;20049;-67
2021/10/28 18:14:01;;;;;;;6.03;2.60;;;13.80;88.50;;;;;;5035771;28;20077;-66
2021/10/28 18:16:28;;;;;;;12.02;3.50;;;13.80;88.40;;;;;;5036225;28;20092;-66
2021/10/28 18:18:56;;;;;;;7.68;3.00;;;13.80;88.30;;;;;;5038546;28;20103;-67
2021/10/28 18:21:23;;;;;;;5.50;3.05;;;13.80;88.30;;;;;;5019922;28;20103;-67
2021/10/28 18:23:51;;;;;;;8.90;2.80;;;13.80;88.20;;;;;;5043732;28;20573;-66
2021/10/28 18:26:19;;;;;;;7.40;2.95;;;13.80;88.20;;;;;;5012423;28;20081;-66
2021/10/28 18:28:46;;;;;;;8.85;2.55;;;13.70;88.10;;;;;;5027421;28;20096;-66
2021/10/28 18:31:13;;;;;;;9.13;2.92;;;13.70;88.00;;;;;;5032777;28;20099;-65
2021/10/28 18:33:42;;;;;;;8.65;5.15;;;13.80;87.90;;;;;;5036154;28;20049;-65
2021/10/28 18:36:10;;;;;;;6.05;2.17;;;13.80;87.80;;;;;;5041267;28;20122;-67
2021/10/28 18:38:37;;;;;;;8.27;2.83;;;13.80;87.80;;;;;;5040348;28;20088;-66
2021/10/28 18:41:04;;;;;;;7.05;3.03;;;13.70;87.80;;;;;;5041290;28;20491;-66
2021/10/28 18:43:31;;;;;;;8.15;2.83;;;13.70;87.80;;;;;;5029909;28;20049;-65
2021/10/28 18:45:58;;;;;;;9.75;2.90;;;13.70;87.80;;;;;;5029073;28;20089;-66
2021/10/28 18:48:25;;;;;;;8.27;3.38;;;13.70;87.80;;;;;;5035438;28;20049;-65
2021/10/28 18:50:53;;;;;;;9.63;2.95;;;13.70;87.80;;;;;;5039298;28;20094;-65
2021/10/28 18:53:20;;;;;;;7.72;3.97;;;13.70;87.80;;;;;;5039271;28;20077;-66
2021/10/28 18:55:47;;;;;;;5.75;2.58;;;13.70;87.80;;;;;;5038481;28;20060;-66
2021/10/28 18:58:14;;;;;;;10.63;3.28;;;13.70;87.90;;;;;;5017867;28;20132;-65
2021/10/28 19:00:41;;;;;;;11.10;3.38;;;13.70;88.30;;;;;;5036586;28;20132;-64
2021/10/28 19:03:08;;;;;;;7.63;2.78;;;13.70;88.10;;;;;;5038651;28;20049;-65
2021/10/28 19:05:35;;;;;;;9.60;2.88;;;13.70;87.90;;;;;;5036961;28;20048;-67
2021/10/28 19:08:02;;;;;;;12.32;3.80;;;13.70;87.80;;;;;;5037425;28;20072;-65
2021/10/28 19:10:29;;;;;;;14.85;3.38;;;13.70;87.70;;;;;;5037343;28;20156;-66
2021/10/28 19:12:56;;;;;;;11.85;3.28;;;13.80;87.80;;;;;;5039788;28;20053;-66
2021/10/28 19:15:22;;;;;;;13.27;2.95;;;13.80;87.80;;;;;;5040087;28;20110;-66
2021/10/28 19:17:52;;;;;;;7.32;3.25;;;13.80;87.80;;;;;;5033866;28;20549;-66
2021/10/28 19:20:18;;;;;;;7.50;3.13;;;13.80;87.70;;;;;;5041267;28;20064;-65
2021/10/28 19:22:45;;;;;;;9.52;2.85;;;13.80;87.80;;;;;;5028930;28;20103;-65
2021/10/28 19:25:12;;;;;;;11.77;3.38;;;13.80;87.80;;;;;;5006138;28;20381;-65
2021/10/28 19:27:39;;;;;;;14.93;4.10;;;13.80;87.80;;;;;;5034936;28;20509;-65
2021/10/28 19:30:13;;;;;;;12.43;3.15;;;13.90;88.30;;;;;;5029386;28;20570;-65
2021/10/28 19:32:43;;;;;;;14.38;3.40;;;13.90;87.80;;;;;;5032066;28;20476;-66
2021/10/28 19:35:10;;;;;;;11.57;3.90;;;13.80;87.90;;;;;;5029447;28;20502;-65
2021/10/28 19:38:18;;;;;;;6.80;3.30;;;13.80;87.90;;;;;;5031190;28;20168;-65
2021/10/28 19:48:16;;;;;;;14.07;4.03;;;13.90;88.40;;;;;;5033349;28;20335;-65
2021/10/28 19:50:47;;;;;;;8.60;3.13;;;13.80;88.40;;;;;;5030009;28;20504;-65
2021/10/28 19:53:16;;;;;;;10.93;3.53;;;13.90;88.50;;;;;;5036625;28;20562;-66
2021/10/28 19:55:43;;;;;;;11.27;3.40;;;13.80;88.50;;;;;;5036189;28;20069;-66
2021/10/28 19:58:15;;;;;;;8.70;4.20;;;13.90;88.70;;;;;;5034292;28;20401;-66
2021/10/28 20:01:10;;;;;;;12.07;3.83;;;13.90;88.90;;;;;;5030597;28;20151;-65
2021/10/28 20:06:43;;;;;;;11.57;3.40;;;13.90;89.10;;;;;;5039279;28;20111;-64
2021/10/28 20:22:35;;;;;;;8.73;3.33;;;13.90;89.60;;;;;;5029759;28;21705;-65
2021/10/28 20:25:03;;;;;;;11.00;4.03;;;13.90;89.70;;;;;;5031643;28;20053;-66
2021/10/28 20:27:30;;;;;;;14.40;3.40;;;13.90;90.00;;;;;;5041147;28;20098;-67
2021/10/28 20:29:58;;;;;;;11.10;4.18;;;13.90;89.90;;;;;;5022322;28;20132;-66
2021/10/28 20:32:26;;;;;;;14.43;4.32;;;13.90;90.00;;;;;;5031673;28;20071;-66
2021/10/28 20:37:38;;;;;;;14.30;6.43;;;13.90;90.00;;;;;;5035943;28;20454;-66
2021/10/28 20:40:06;;;;;;;13.45;4.55;;;13.90;90.10;;;;;;5046183;28;20117;-66
2021/10/28 20:42:36;;;;;;;13.55;4.40;;;13.90;90.10;;;;;;5039740;28;20503;-66
2021/10/28 20:45:08;;;;;;;11.88;5.07;;;13.90;90.10;;;;;;5033906;28;20470;-66
2021/10/28 20:47:35;;;;;;;23.48;7.63;;;13.90;90.30;;;;;;5030096;28;20512;-66
2021/10/28 20:50:03;;;;;;;9.88;3.92;;;13.90;90.30;;;;;;5036962;28;20056;-65
2021/10/28 20:52:30;;;;;;;16.17;4.20;;;14.00;90.30;;;;;;5034090;28;20076;-65
2021/10/28 20:54:57;;;;;;;18.42;4.22;;;14.00;90.30;;;;;;5029683;28;20578;-67
2021/10/28 20:57:24;;;;;;;17.63;6.53;;;14.00;90.30;;;;;;5035459;28;20037;-67
2021/10/28 20:59:50;;;;;;;13.30;4.10;;;14.00;90.30;;;;;;5033963;28;20045;-66
2021/10/28 21:02:17;;;;;;;9.95;4.35;;;14.00;90.30;;;;;;5036201;28;20073;-67
2021/10/28 21:04:44;;;;;;;8.95;3.47;;;14.00;90.40;;;;;;5034611;28;20156;-66
2021/10/28 21:07:11;;;;;;;13.02;4.50;;;14.00;90.40;;;;;;5037498;28;20591;-66
2021/10/28 21:09:38;;;;;;;15.25;4.30;;;14.10;90.40;;;;;;5035462;28;20041;-65
2021/10/28 21:12:05;;;;;;;10.68;4.18;;;14.00;90.50;;;;;;5036084;28;20076;-65
2021/10/28 21:14:33;;;;;;;15.82;5.00;;;14.10;90.50;;;;;;5032077;28;20057;-67
2021/10/28 21:17:00;;;;;;;15.00;4.07;;;14.10;90.50;;;;;;5037223;28;20041;-67
2021/10/28 21:19:27;;;;;;;11.80;4.70;;;14.00;90.50;;;;;;5036920;28;20073;-67
2021/10/28 21:21:54;;;;;;;11.55;4.82;;;14.00;90.50;;;;;;5045117;28;20045;-66
2021/10/28 21:24:22;;;;;;;16.77;4.72;;;14.00;90.50;;;;;;5045821;28;20413;-67
2021/10/28 21:26:54;;;;;;;10.30;5.07;;;14.00;90.50;;;;;;5044286;28;20049;-67
2021/10/28 21:29:21;;;;;;;12.23;4.82;;;14.10;90.60;;;;;;5041161;28;20091;-66
2021/10/28 21:31:48;;;;;;;13.77;4.30;;;14.10;90.60;;;;;;5039337;28;20424;-65
2021/10/28 21:34:15;;;;;;;17.00;4.68;;;14.10;90.60;;;;;;5039865;28;20448;-67
2021/10/28 21:36:42;;;;;;;15.85;4.72;;;14.10;90.70;;;;;;5039399;28;20052;-67
2021/10/28 21:39:09;;;;;;;17.25;4.55;;;14.10;90.70;;;;;;5035813;28;20632;-66
2021/10/28 21:41:36;;;;;;;12.65;4.03;;;14.10;90.70;;;;;;5044185;28;20485;-66
2021/10/28 21:44:03;;;;;;;13.52;4.63;;;14.10;90.60;;;;;;5043145;28;20050;-66
2021/10/28 21:46:34;;;;;;;17.25;4.57;;;14.00;90.60;;;;;;5042290;28;20085;-65
2021/10/28 21:49:02;;;;;;;16.98;4.25;;;14.10;90.70;;;;;;5045830;28;20542;-67
2021/10/28 21:51:29;;;;;;;16.70;3.90;;;14.10;90.70;;;;;;5035260;28;20049;-67